Terminal Aerodrome Forecast
Issued by NWS

Current Version | Previous Version | Text Only | Print | Product List | Glossary On
Versions: 1 2 3 4 5 6 7 8 9 10 11 12 13 14 15
000
FTUS46 KSEW 281100
TAFPAE
TAF
KPAE 281127Z 2812/2912 03004KT P6SM SKC
     FM281900 35008KT P6SM FEW200
     FM290600 03005KT P6SM SKC=

USA.gov is the U.S. government's official web portal to all federal, state and local government web resources and services.